Normanna, Texas
Current Conditions -  °F | °C
As of 2:35 AM on Saturday 22 Nov 2014 (Local Time) from KBEA Reporting Station
Overcast Overcast  
Wind Chill: 69°   Ceiling: 5500
Heat Index: 69°   Visibility: 10mi
Dew Point: 68°   Wind: 10mph
Humidity: 97%   Direction: 120°ESE
Pressure: 30"   Gusts: NA
Location:  28.53°N, 97.78°W
Report Text: KBEA 220835Z AUTO 12009KT 10SM SCT020 BKN055 OVC075 20/20 A3000 RMK AO2 LTG DSNT N P0001 T02030198
Loading
Personal Weather Stations






























Interactive Weather Map New forecast layout! Learn more

10-Day Weather Forecast

Advertisements
Track Severe Weather on mobile